Historyczne dane pomiarowe

Dodano dane terminowe – wersja testowa.

Dane z okresu 1951-2019

Wersja bazy: 1.34 [2019-03-16, lista zmian], aktualizacja planowana na 2019-04-15

Dane meteo z obszaru Polski uzyskane na podstawie danych udostępnionych przez Instytut Meteorologii i Gospodarki Wodnej – Państwowy Instytut Badawczy.

 

Wybierz Datę:    

       

TemperaturaWilgotnośćWiatrCiśnienieOpadyŚniegCzas trwania zjawisk
 Stacja t tx tn tng RH VA  wxwx mslp ppp RRR   cm mm wxwxwxwxwxwxwx
1997-03-18 -3.2 0.8 -5.4 -9.6 82.0- 2.7 3.7---- 0.9------------
1997-03-19 -4.9 1.7-11.0-13.6 76.8- 2.0 2.7---- 0.0------------
1997-03-20 -3.2 0.9 -8.5-12.7 81.0- 4.0 4.3---- 0.2------------
1997-03-21 -2.3 0.7 -3.6 -7.2 85.8- 4.0 2.3---- 0.0------------
1997-03-22 -2.9 1.0 -7.2-10.0 80.0- 4.0 1.7---- 0.0------------
1997-03-23 -3.2 3.4 -8.5-11.8 85.3- 4.0 2.7---- 0.0------------
1997-03-24 -1.6 3.2 -4.6 -8.8 82.8- 4.0 3.0---- 0.0------------
1997-03-25 -3.5 1.8 -8.1-10.7 80.0- 6.0 1.7---- 0.0------------
1997-03-26 -4.1 2.3-11.1-16.3 72.0- 0.7 2.0---- 2.4------------
1997-03-27 3.4 10.0 -2.1 -6.6 76.8- 5.3 8.3---- 0.0------------
1997-03-28 2.9 7.1 0.4 -4.1 87.3- 7.3 4.3---- 15.4------------
1997-03-29 2.5 5.7 1.0 -1.2 88.0- 4.7 5.0---- 0.5------------
1997-03-30 1.2 6.8 -3.7 -7.1 83.5- 0.0 5.0---- 0.0------------
1997-03-31 3.0 6.8 -3.3 -8.0 92.5- 8.0 3.0---- 0.0------------
1997-04-01 7.9 15.8 3.3 -1.4 80.3- 4.7 3.0---- 0.0------------
1997-04-02 6.8 13.4 1.4 -4.8 76.5- 0.7 2.7---- 0.0------------
1997-04-03 5.8 14.2 -3.1 -6.6 81.5- 0.7 5.0---- 0.0------------
1997-04-04 3.6 10.2 0.1 -1.1 84.5- 5.3 8.3---- 3.7------------
1997-04-05 2.5 8.3 -2.9 -7.7 66.8- 2.7 3.7---- 0.3------------
1997-04-06 0.9 3.7 -1.1 -3.1 91.0- 7.3 5.7---- 1.6------------
1997-04-07 -0.6 3.4 -3.2 -5.4 95.3- 2.0 7.0---- 0.0------------
1997-04-08 -0.7 4.5 -6.9-11.7 87.5- 2.0 6.0---- 0.3------------
1997-04-09 1.5 6.5 -3.4 -8.9 75.8- 2.0 2.0---- 0.0------------
1997-04-10 5.1 9.0 2.2 -1.1 83.5- 6.7 5.0---- 2.0------------
1997-04-11 3.3 7.5 0.6 -0.3 89.0- 6.0 10.3---- 3.2------------
1997-04-12 1.0 3.2 -0.6 -1.1 87.8- 6.0 7.7---- 0.2------------
1997-04-13 0.0 4.1 -4.2 -8.4 92.3- 3.3 4.3---- 0.0------------
1997-04-14 3.5 7.9 -0.1 -3.9 86.5- 7.3 8.3---- 4.8------------
1997-04-15 1.4 6.2 -2.2 -4.7 76.5- 3.3 3.0---- 2.2------------
1997-04-16 -0.5 1.2 -3.5 -7.8 92.5- 7.3 3.7---- 3.7------------
218.1 ms

 

Źródłem pochodzenia danych jest Instytut Meteorologii i Gospodarki Wodnej – Państwowy Instytut Badawczy. Dane Instytutu Meteorologii i Gospodarki Wodnej – Państwowego Instytutu Badawczego zostały przetworzone.

Dane źródłowe można odnaleźć na stronie https://dane.imgw.pl